createdAt,value
2018-12-26T00:02:41.596Z,6.40
2018-12-26T00:05:31.695Z,6.30
2018-12-26T00:08:21.001Z,6.30
2018-12-26T00:11:10.530Z,6.40
2018-12-26T00:13:58.848Z,6.30
2018-12-26T00:16:47.233Z,6.30
2018-12-26T00:19:35.675Z,6.30
2018-12-26T00:22:28.034Z,6.20
2018-12-26T00:25:17.260Z,6.20
2018-12-26T00:28:06.733Z,6.20
2018-12-26T00:30:55.621Z,6.10
2018-12-26T00:33:44.482Z,6.10
2018-12-26T00:36:33.567Z,6.00
2018-12-26T00:39:22.178Z,6.00
2018-12-26T00:42:11.057Z,5.90
2018-12-26T00:45:00.394Z,5.90
2018-12-26T00:47:49.247Z,5.90
2018-12-26T00:50:38.216Z,5.80
2018-12-26T00:53:26.790Z,5.80
2018-12-26T00:56:16.252Z,5.80
2018-12-26T00:59:05.029Z,5.80
2018-12-26T01:01:53.431Z,5.80
2018-12-26T01:04:42.087Z,5.80
2018-12-26T01:07:31.116Z,5.80
2018-12-26T01:10:20.244Z,5.80
2018-12-26T01:13:09.162Z,5.70
2018-12-26T01:16:00.499Z,5.70
2018-12-26T01:18:49.249Z,5.70
2018-12-26T01:21:40.149Z,5.70
2018-12-26T01:24:29.279Z,5.70
2018-12-26T01:27:18.370Z,5.80
2018-12-26T01:30:07.728Z,5.80
2018-12-26T01:32:56.544Z,5.80
2018-12-26T01:35:45.489Z,5.80
2018-12-26T01:38:34.479Z,5.80
2018-12-26T01:41:22.996Z,5.80
2018-12-26T01:44:11.855Z,5.70
2018-12-26T01:47:00.949Z,5.80
2018-12-26T01:49:50.311Z,5.80
2018-12-26T01:52:38.933Z,5.80
2018-12-26T01:55:27.946Z,5.80
2018-12-26T01:58:17.146Z,5.80
2018-12-26T02:01:06.283Z,5.80
2018-12-26T02:03:55.188Z,5.80
2018-12-26T02:06:43.547Z,5.80
2018-12-26T02:09:32.669Z,5.80
2018-12-26T02:12:21.822Z,5.90
2018-12-26T02:15:10.700Z,5.90
2018-12-26T02:17:59.164Z,5.80
2018-12-26T02:20:47.621Z,5.80
2018-12-26T02:23:36.055Z,5.90
2018-12-26T02:26:25.329Z,5.90
2018-12-26T02:29:14.487Z,5.90
2018-12-26T02:32:03.639Z,5.90
2018-12-26T02:34:52.177Z,5.90
2018-12-26T02:37:40.699Z,5.90
2018-12-26T02:40:29.682Z,5.90
2018-12-26T02:43:18.588Z,6.00
2018-12-26T02:46:07.768Z,5.90
2018-12-26T02:48:57.053Z,6.00
2018-12-26T02:51:45.683Z,5.90
2018-12-26T02:54:34.717Z,6.00
2018-12-26T02:57:23.177Z,6.00
2018-12-26T03:00:12.642Z,6.00
2018-12-26T03:03:01.571Z,6.00
2018-12-26T03:05:50.605Z,6.00
2018-12-26T03:08:39.393Z,6.00
2018-12-26T03:11:28.301Z,6.00
2018-12-26T03:14:16.789Z,6.00
2018-12-26T03:17:05.826Z,6.00
2018-12-26T03:19:54.314Z,6.00
2018-12-26T03:22:42.729Z,6.00
2018-12-26T03:25:31.830Z,6.00
2018-12-26T03:28:20.716Z,6.00
2018-12-26T03:31:09.842Z,6.00
2018-12-26T03:33:58.886Z,6.00
2018-12-26T03:36:47.909Z,6.00
2018-12-26T03:39:36.552Z,5.90
2018-12-26T03:42:25.151Z,5.90
2018-12-26T03:45:14.806Z,5.90
2018-12-26T03:48:04.605Z,5.90
2018-12-26T03:50:53.703Z,5.90
2018-12-26T03:53:43.018Z,6.00
2018-12-26T03:56:31.867Z,6.00
2018-12-26T03:59:20.820Z,5.90
2018-12-26T04:02:09.723Z,5.90
2018-12-26T04:04:58.470Z,6.00
2018-12-26T04:07:47.237Z,6.00
2018-12-26T04:10:35.648Z,6.00
2018-12-26T04:13:24.411Z,6.10
2018-12-26T04:16:13.630Z,6.00
2018-12-26T04:19:03.095Z,6.00
2018-12-26T04:21:51.954Z,6.00
2018-12-26T04:24:40.458Z,6.00
2018-12-26T04:27:29.419Z,6.00
2018-12-26T04:30:17.680Z,6.00
2018-12-26T04:33:06.351Z,6.00
2018-12-26T04:35:55.391Z,6.00
2018-12-26T04:38:44.288Z,6.00
2018-12-26T04:41:32.511Z,6.00
2018-12-26T04:44:21.758Z,6.00
2018-12-26T04:47:10.871Z,6.00
2018-12-26T04:49:59.817Z,6.00
2018-12-26T04:52:48.468Z,6.10
2018-12-26T04:55:37.452Z,6.10
2018-12-26T04:58:26.225Z,6.10
2018-12-26T05:01:15.249Z,6.00
2018-12-26T05:04:04.154Z,6.10
2018-12-26T05:06:53.340Z,6.10
2018-12-26T05:09:41.922Z,6.00
2018-12-26T05:12:30.933Z,6.10
2018-12-26T05:15:19.807Z,6.10
2018-12-26T05:18:08.936Z,6.10
2018-12-26T05:20:57.199Z,6.10
2018-12-26T05:23:45.871Z,6.10
2018-12-26T05:26:35.156Z,6.20
2018-12-26T05:29:24.241Z,6.20
2018-12-26T05:32:13.408Z,6.20
2018-12-26T05:35:01.952Z,6.20
2018-12-26T05:37:50.347Z,6.20
2018-12-26T05:40:38.627Z,6.20
2018-12-26T05:43:27.391Z,6.30
2018-12-26T05:46:16.135Z,6.30
2018-12-26T05:49:05.036Z,6.30
2018-12-26T05:51:54.164Z,6.30
2018-12-26T05:54:43.119Z,6.30
2018-12-26T05:57:32.543Z,6.30
2018-12-26T06:00:22.107Z,6.30
2018-12-26T06:03:10.751Z,6.30
2018-12-26T06:06:00.491Z,6.40
2018-12-26T06:08:49.165Z,6.40
2018-12-26T06:11:37.602Z,6.40
2018-12-26T06:14:26.241Z,6.40
2018-12-26T06:17:15.347Z,6.40
2018-12-26T06:20:04.523Z,6.40
2018-12-26T06:22:53.521Z,6.50
2018-12-26T06:25:42.174Z,6.50
2018-12-26T06:28:30.971Z,6.50
2018-12-26T06:31:20.089Z,6.60
2018-12-26T06:34:08.874Z,6.60
2018-12-26T06:36:58.087Z,6.60
2018-12-26T06:39:46.495Z,6.60
2018-12-26T06:42:35.556Z,6.70
2018-12-26T06:45:24.186Z,6.70
2018-12-26T06:48:13.136Z,6.70
2018-12-26T06:51:01.701Z,6.70
2018-12-26T06:53:50.472Z,6.70
2018-12-26T06:56:38.988Z,6.70
2018-12-26T06:59:28.121Z,6.70
2018-12-26T07:02:17.189Z,6.70
2018-12-26T07:05:05.819Z,6.70
2018-12-26T07:07:54.711Z,6.80
2018-12-26T07:10:44.176Z,6.70
2018-12-26T07:13:33.120Z,6.70
2018-12-26T07:16:22.101Z,6.80
2018-12-26T07:19:10.922Z,6.80
2018-12-26T07:21:59.820Z,6.80
2018-12-26T07:24:48.940Z,6.80
2018-12-26T07:27:37.919Z,6.90
2018-12-26T07:30:26.314Z,6.90
2018-12-26T07:33:15.108Z,6.90
2018-12-26T07:36:03.918Z,6.90
2018-12-26T07:38:53.137Z,6.80
2018-12-26T07:41:42.198Z,6.90
2018-12-26T07:44:31.742Z,6.90
2018-12-26T07:47:20.225Z,6.80
2018-12-26T07:50:09.611Z,6.80
2018-12-26T07:52:58.240Z,6.90
2018-12-26T07:55:46.858Z,6.80
2018-12-26T07:58:35.960Z,6.80
2018-12-26T08:01:24.841Z,6.80
2018-12-26T08:04:14.119Z,6.80
2018-12-26T08:07:02.675Z,6.80
2018-12-26T08:09:51.610Z,6.90
2018-12-26T08:12:40.018Z,6.90
2018-12-26T08:15:29.177Z,6.90
2018-12-26T08:18:18.015Z,6.90
2018-12-26T08:21:06.414Z,6.90
2018-12-26T08:23:55.506Z,6.90
2018-12-26T08:26:44.454Z,6.90
2018-12-26T08:29:32.811Z,7.00
2018-12-26T08:32:21.752Z,7.00
2018-12-26T08:35:10.928Z,7.00
2018-12-26T08:37:59.657Z,7.00
2018-12-26T08:40:48.522Z,7.10
2018-12-26T08:43:37.656Z,7.10
2018-12-26T08:46:26.497Z,7.10
2018-12-26T08:49:15.635Z,7.20
2018-12-26T08:52:04.739Z,7.10
2018-12-26T08:54:53.808Z,7.20
2018-12-26T08:57:42.967Z,7.20
2018-12-26T09:00:32.037Z,7.20
2018-12-26T09:03:20.755Z,7.30
2018-12-26T09:06:09.760Z,7.30
2018-12-26T09:08:58.557Z,7.30
2018-12-26T09:11:47.476Z,7.30
2018-12-26T09:14:36.566Z,7.40
2018-12-26T09:17:25.841Z,7.40
2018-12-26T09:20:14.792Z,7.40
2018-12-26T09:23:03.532Z,7.40
2018-12-26T09:25:53.825Z,7.40
2018-12-26T09:28:43.948Z,7.50
2018-12-26T09:31:33.715Z,7.40
2018-12-26T09:34:22.158Z,7.50
2018-12-26T09:37:11.305Z,7.50
2018-12-26T09:40:00.158Z,7.60
2018-12-26T09:42:49.182Z,7.60
2018-12-26T09:45:37.667Z,7.60
2018-12-26T09:48:26.977Z,7.60
2018-12-26T09:51:15.736Z,7.60
2018-12-26T09:54:04.754Z,7.60
2018-12-26T09:56:53.598Z,7.60
2018-12-26T09:59:42.519Z,7.60
2018-12-26T10:02:31.564Z,7.70
2018-12-26T10:05:20.528Z,7.60
2018-12-26T10:08:09.343Z,7.70
2018-12-26T10:10:57.766Z,7.70
2018-12-26T10:13:46.618Z,7.70
2018-12-26T10:16:35.821Z,7.70
2018-12-26T10:19:25.021Z,7.70
2018-12-26T10:22:13.937Z,7.70
2018-12-26T10:25:03.059Z,7.70
2018-12-26T10:27:52.074Z,7.70
2018-12-26T10:30:40.784Z,7.70
2018-12-26T10:33:30.076Z,7.70
2018-12-26T10:36:18.873Z,7.70
2018-12-26T10:39:08.112Z,7.70
2018-12-26T10:41:56.901Z,7.70
2018-12-26T10:44:45.731Z,7.80
2018-12-26T10:47:34.709Z,7.80
2018-12-26T10:50:23.209Z,7.80
2018-12-26T10:53:12.225Z,7.80
2018-12-26T10:56:01.105Z,7.80
2018-12-26T10:58:50.146Z,7.80
2018-12-26T11:01:38.818Z,7.80
2018-12-26T11:04:27.358Z,7.90
2018-12-26T11:07:16.417Z,7.90
2018-12-26T11:10:05.657Z,7.90
2018-12-26T11:12:53.966Z,8.00
2018-12-26T11:15:42.522Z,8.00
2018-12-26T11:18:31.360Z,8.10
2018-12-26T11:21:20.548Z,8.10
2018-12-26T11:24:09.776Z,8.10
2018-12-26T11:26:59.437Z,8.10
2018-12-26T11:29:48.468Z,8.10
2018-12-26T11:32:37.387Z,8.20
2018-12-26T11:35:26.058Z,8.20
2018-12-26T11:38:14.960Z,8.20
2018-12-26T11:41:05.219Z,8.20
2018-12-26T11:43:54.668Z,8.20
2018-12-26T11:46:43.137Z,8.20
2018-12-26T11:49:31.746Z,8.20
2018-12-26T11:52:20.981Z,8.30
2018-12-26T11:55:09.296Z,8.30
2018-12-26T11:57:58.432Z,8.40
2018-12-26T12:00:47.437Z,8.30
2018-12-26T12:03:36.421Z,8.40
2018-12-26T12:06:25.251Z,8.30
2018-12-26T12:09:13.803Z,8.30
2018-12-26T12:12:02.795Z,8.30
2018-12-26T12:14:51.161Z,8.40
2018-12-26T12:17:40.635Z,8.40
2018-12-26T12:20:29.424Z,8.40
2018-12-26T12:23:18.298Z,8.40
2018-12-26T12:26:07.448Z,8.40
2018-12-26T12:28:56.212Z,8.50
2018-12-26T12:31:44.708Z,8.50
2018-12-26T12:34:34.402Z,8.50
2018-12-26T12:37:23.013Z,8.50
2018-12-26T12:40:12.474Z,8.50
2018-12-26T12:43:01.290Z,8.50
2018-12-26T12:45:50.379Z,8.50
2018-12-26T12:48:39.630Z,8.50
2018-12-26T12:51:28.727Z,8.50
2018-12-26T12:54:17.277Z,8.50
2018-12-26T12:57:06.244Z,8.50
2018-12-26T12:59:54.694Z,8.40
2018-12-26T13:02:43.848Z,8.40
2018-12-26T13:05:32.468Z,8.40
2018-12-26T13:08:21.801Z,8.50
2018-12-26T13:11:10.607Z,8.50
2018-12-26T13:13:59.720Z,8.50
2018-12-26T13:16:48.804Z,8.50
2018-12-26T13:19:37.978Z,8.50
2018-12-26T13:22:26.676Z,8.50
2018-12-26T13:25:15.652Z,8.50
2018-12-26T13:28:04.806Z,8.50
2018-12-26T13:30:53.422Z,8.50
2018-12-26T13:33:42.294Z,8.50
2018-12-26T13:36:31.282Z,8.50
2018-12-26T13:39:20.384Z,8.50
2018-12-26T13:42:09.397Z,8.50
2018-12-26T13:44:58.396Z,8.50
2018-12-26T13:47:46.972Z,8.50
2018-12-26T13:50:36.116Z,8.50
2018-12-26T13:53:25.129Z,8.50
2018-12-26T13:56:14.917Z,8.50
2018-12-26T13:59:03.554Z,8.50
2018-12-26T14:01:52.294Z,8.50
2018-12-26T14:04:41.286Z,8.50
2018-12-26T14:07:30.521Z,8.50
2018-12-26T14:10:18.861Z,8.60
2018-12-26T14:13:07.832Z,8.60
2018-12-26T14:15:56.421Z,8.60
2018-12-26T14:18:45.431Z,8.60
2018-12-26T14:21:34.623Z,8.60
2018-12-26T14:24:23.108Z,8.60
2018-12-26T14:27:11.515Z,8.60
2018-12-26T14:30:00.333Z,8.60
2018-12-26T14:32:49.514Z,8.60
2018-12-26T14:35:38.578Z,8.60
2018-12-26T14:38:27.840Z,8.60
2018-12-26T14:41:16.718Z,8.60
2018-12-26T14:44:05.669Z,8.60
2018-12-26T14:46:54.245Z,8.60
2018-12-26T14:49:43.035Z,8.60
2018-12-26T14:52:31.892Z,8.70
2018-12-26T14:55:20.830Z,8.70
2018-12-26T14:58:09.663Z,8.70
2018-12-26T15:00:58.521Z,8.70
2018-12-26T15:03:47.073Z,8.80
2018-12-26T15:06:35.759Z,8.80
2018-12-26T15:09:24.631Z,8.80
2018-12-26T15:12:13.024Z,8.80
2018-12-26T15:15:02.411Z,8.80
2018-12-26T15:17:51.323Z,8.80
2018-12-26T15:20:39.864Z,8.80
2018-12-26T15:23:28.811Z,8.90
2018-12-26T15:26:17.614Z,8.90
2018-12-26T15:29:06.622Z,8.90
2018-12-26T15:31:55.002Z,8.90
2018-12-26T15:34:44.003Z,8.90
2018-12-26T15:37:32.786Z,8.90
2018-12-26T15:40:21.755Z,8.90
2018-12-26T15:43:11.088Z,8.90
2018-12-26T15:46:00.392Z,8.90
2018-12-26T15:48:49.027Z,8.90
2018-12-26T15:51:37.947Z,8.90
2018-12-26T15:54:26.176Z,9.00
2018-12-26T15:57:15.104Z,9.00
2018-12-26T16:00:04.688Z,8.90
2018-12-26T16:02:54.006Z,8.90
2018-12-26T16:05:43.494Z,9.00
2018-12-26T16:08:32.487Z,9.00
2018-12-26T16:11:20.699Z,8.90
2018-12-26T16:14:09.800Z,8.90
2018-12-26T16:16:59.423Z,8.90
2018-12-26T16:19:49.028Z,8.90
2018-12-26T16:22:39.712Z,9.00
2018-12-26T16:25:28.394Z,9.00
2018-12-26T16:28:17.359Z,9.00
2018-12-26T16:31:06.133Z,8.90
2018-12-26T16:33:55.363Z,9.00
2018-12-26T16:36:44.323Z,9.00
2018-12-26T16:39:35.861Z,9.00
2018-12-26T16:42:23.385Z,9.00
2018-12-26T16:45:12.348Z,9.00
2018-12-26T16:48:01.143Z,9.00
2018-12-26T16:50:50.048Z,9.00
2018-12-26T16:53:38.617Z,8.90
2018-12-26T16:56:27.788Z,8.90
2018-12-26T16:59:16.496Z,9.00
2018-12-26T17:02:05.508Z,9.00
2018-12-26T17:04:54.576Z,8.90
2018-12-26T17:07:43.501Z,9.00
2018-12-26T17:10:32.148Z,9.00
2018-12-26T17:13:21.489Z,9.00
2018-12-26T17:16:09.867Z,8.90
2018-12-26T17:18:58.945Z,9.00
2018-12-26T17:21:47.965Z,8.90
2018-12-26T17:24:36.963Z,8.90
2018-12-26T17:27:25.610Z,8.90
2018-12-26T17:30:14.996Z,9.00
2018-12-26T17:33:03.660Z,9.00
2018-12-26T17:35:52.835Z,8.90
2018-12-26T17:38:41.903Z,8.90
2018-12-26T17:41:30.560Z,8.90
2018-12-26T17:44:19.156Z,8.90
2018-12-26T17:47:08.433Z,8.90
2018-12-26T17:50:38.438Z,8.90
2018-12-26T17:53:35.229Z,8.80
2018-12-26T17:56:34.819Z,8.80
2018-12-26T17:59:37.505Z,8.80
2018-12-26T18:02:29.526Z,8.70
2018-12-26T18:05:18.268Z,8.70
2018-12-26T18:08:07.568Z,8.70
2018-12-26T18:10:56.638Z,8.60
2018-12-26T18:13:46.007Z,8.60
2018-12-26T18:16:35.280Z,8.60
2018-12-26T18:19:24.294Z,8.60
2018-12-26T18:22:13.489Z,8.50
2018-12-26T18:25:02.657Z,8.50
2018-12-26T18:27:51.585Z,8.50
2018-12-26T18:30:40.593Z,8.50
2018-12-26T18:33:29.618Z,8.50
2018-12-26T18:36:18.864Z,8.50
2018-12-26T18:39:08.410Z,8.40
2018-12-26T18:41:57.337Z,8.40
2018-12-26T18:44:45.701Z,8.40
2018-12-26T18:47:34.205Z,8.30
2018-12-26T18:50:23.644Z,8.30
2018-12-26T18:53:12.709Z,8.30
2018-12-26T18:56:01.712Z,8.30
2018-12-26T18:58:51.072Z,8.20
2018-12-26T19:01:41.460Z,8.20
2018-12-26T19:04:29.789Z,8.20
2018-12-26T19:07:19.173Z,8.20
2018-12-26T19:10:09.223Z,8.10
2018-12-26T19:12:58.102Z,8.10
2018-12-26T19:15:47.008Z,8.20
2018-12-26T19:18:36.174Z,8.10
2018-12-26T19:21:25.268Z,8.20
2018-12-26T19:24:14.250Z,8.20
2018-12-26T19:27:03.517Z,8.20
2018-12-26T19:29:59.271Z,8.20
2018-12-26T19:32:43.542Z,8.20
2018-12-26T19:35:32.520Z,8.20
2018-12-26T19:38:21.492Z,8.20
2018-12-26T19:41:10.340Z,8.20
2018-12-26T19:43:59.521Z,8.20
2018-12-26T19:46:48.687Z,8.10
2018-12-26T19:49:37.336Z,8.10
2018-12-26T19:52:26.061Z,8.10
2018-12-26T19:55:14.942Z,8.00
2018-12-26T19:58:03.797Z,8.00
2018-12-26T20:00:52.599Z,7.90
2018-12-26T20:03:41.873Z,7.90
2018-12-26T20:06:32.343Z,7.80
2018-12-26T20:09:21.594Z,7.90
2018-12-26T20:12:10.267Z,7.80
2018-12-26T20:14:59.461Z,7.80
2018-12-26T20:17:48.261Z,7.80
2018-12-26T20:20:37.154Z,7.80
2018-12-26T20:23:25.366Z,7.80
2018-12-26T20:26:14.472Z,7.80
2018-12-26T20:29:03.198Z,7.80
2018-12-26T20:31:56.833Z,7.80
2018-12-26T20:34:42.104Z,7.80
2018-12-26T20:37:31.484Z,7.90
2018-12-26T20:40:20.359Z,7.80
2018-12-26T20:43:09.329Z,7.80
2018-12-26T20:45:58.760Z,7.80
2018-12-26T20:48:47.944Z,7.80
2018-12-26T20:51:37.278Z,7.70
2018-12-26T20:54:26.134Z,7.70
2018-12-26T20:57:15.371Z,7.70
2018-12-26T21:00:07.275Z,7.70
2018-12-26T21:02:59.320Z,7.70
2018-12-26T21:05:49.682Z,7.70
2018-12-26T21:08:38.371Z,7.60
2018-12-26T21:11:27.281Z,7.70
2018-12-26T21:14:16.869Z,7.70
2018-12-26T21:17:10.288Z,7.60
2018-12-26T21:19:59.297Z,7.60
2018-12-26T21:22:51.914Z,7.60
2018-12-26T21:25:42.295Z,7.60
2018-12-26T21:28:31.650Z,7.60
2018-12-26T21:31:20.844Z,7.60
2018-12-26T21:36:46.446Z,7.60
2018-12-26T21:39:35.178Z,7.60
2018-12-26T21:42:24.173Z,7.60
2018-12-26T21:45:13.066Z,7.60
2018-12-26T21:48:01.924Z,7.60
2018-12-26T21:50:51.088Z,7.50
2018-12-26T21:56:44.095Z,7.50
2018-12-26T21:59:39.413Z,7.50
2018-12-26T22:02:25.857Z,7.50
2018-12-26T22:05:15.151Z,7.50
2018-12-26T22:08:08.473Z,7.50
2018-12-26T22:11:00.881Z,7.50
2018-12-26T22:13:50.463Z,7.50
2018-12-26T22:16:42.609Z,7.50
2018-12-26T22:19:33.150Z,7.50
2018-12-26T22:22:23.395Z,7.50
2018-12-26T22:25:13.071Z,7.50
2018-12-26T22:28:02.329Z,7.50
2018-12-26T22:30:51.143Z,7.50
2018-12-26T22:33:40.704Z,7.40
2018-12-26T22:36:34.385Z,7.50
2018-12-26T22:39:23.504Z,7.40
2018-12-26T22:42:11.913Z,7.40
2018-12-26T22:45:06.495Z,7.40
2018-12-26T22:47:55.269Z,7.40
2018-12-26T22:50:44.413Z,7.40
2018-12-26T22:53:33.647Z,7.40
2018-12-26T22:56:22.788Z,7.40
2018-12-26T22:59:11.652Z,7.40
2018-12-26T23:02:01.127Z,7.40
2018-12-26T23:04:50.313Z,7.40
2018-12-26T23:07:38.940Z,7.40
2018-12-26T23:10:27.760Z,7.30
2018-12-26T23:13:16.681Z,7.40
2018-12-26T23:16:05.413Z,7.30
2018-12-26T23:18:53.691Z,7.30
2018-12-26T23:21:42.518Z,7.30
2018-12-26T23:24:31.679Z,7.30
2018-12-26T23:27:20.671Z,7.30
2018-12-26T23:30:09.816Z,7.30
2018-12-26T23:32:58.824Z,7.30
2018-12-26T23:35:47.549Z,7.30
2018-12-26T23:38:36.403Z,7.30
2018-12-26T23:41:25.229Z,7.30
2018-12-26T23:44:14.201Z,7.30
2018-12-26T23:47:02.992Z,7.30
2018-12-26T23:49:52.011Z,7.20
2018-12-26T23:52:40.965Z,7.20
2018-12-26T23:55:30.097Z,7.20
2018-12-26T23:58:19.103Z,7.20
